Time;durP1;ratioP1;P1;durP2;ratioP2;P2;SDS_P1;SDS_P2;PMS_P1;PMS_P2;Temp;Humidity;BMP_temperature;BMP_pressure;BME280_temperature;BME280_humidity;BME280_pressure;Samples;Min_cycle;Max_cycle;Signal;HPM_P1;HPM_P2
2023/10/04 00:01:01;;;;;;;4.90;2.50;;;;;;;12.99;80.85;99089.88;5040441;28;20996;-72
2023/10/04 00:03:28;;;;;;;2.95;2.58;;;;;;;12.93;80.38;99096.09;5030699;28;20505;-72
2023/10/04 00:05:55;;;;;;;3.10;2.67;;;;;;;12.74;81.57;99087.47;5040073;28;20240;-72
2023/10/04 00:08:23;;;;;;;3.05;2.13;;;;;;;12.74;81.12;99087.47;5035541;28;21000;-72
2023/10/04 00:10:50;;;;;;;3.17;2.45;;;;;;;12.69;81.54;99099.94;5028842;28;20200;-72
2023/10/04 00:13:17;;;;;;;3.80;2.30;;;;;;;12.65;81.83;99102.22;5036334;28;20201;-72
2023/10/04 00:15:44;;;;;;;4.00;2.63;;;;;;;12.66;81.37;99101.19;5042674;28;20211;-72
2023/10/04 00:18:12;;;;;;;4.57;2.40;;;;;;;12.61;81.74;99100.06;5044098;28;20201;-71
2023/10/04 00:20:40;;;;;;;5.75;2.55;;;;;;;12.63;81.79;99103.44;5047144;28;20290;-72
2023/10/04 00:23:07;;;;;;;3.30;2.60;;;;;;;12.62;81.82;99108.03;5028871;28;20204;-72
2023/10/04 00:25:34;;;;;;;4.80;2.60;;;;;;;12.73;81.59;99110.25;5031204;28;20251;-72
2023/10/04 00:28:02;;;;;;;2.70;2.50;;;;;;;12.63;81.66;99107.00;5042047;28;20406;-71
2023/10/04 00:30:30;;;;;;;5.10;2.88;;;;;;;12.55;81.82;99111.69;5038171;28;20721;-71
2023/10/04 00:32:57;;;;;;;4.15;2.75;;;;;;;12.36;82.42;99099.50;5038795;28;20201;-71
2023/10/04 00:35:26;;;;;;;3.55;2.50;;;;;;;12.34;82.74;99113.28;5031429;28;20229;-72
2023/10/04 00:37:56;;;;;;;3.53;2.88;;;;;;;11.99;84.65;99119.44;5034614;28;20288;-72
2023/10/04 00:40:25;;;;;;;3.92;2.70;;;;;;;11.76;85.74;99124.84;5027643;28;20233;-72
2023/10/04 00:42:55;;;;;;;3.97;3.00;;;;;;;11.67;86.03;99117.84;5032659;28;20308;-72
2023/10/04 00:45:23;;;;;;;4.80;3.35;;;;;;;11.51;87.82;99120.66;5036208;28;20216;-72
2023/10/04 00:47:52;;;;;;;3.05;2.65;;;;;;;11.57;88.20;99118.06;5042443;28;20250;-72
2023/10/04 00:50:25;;;;;;;4.20;2.92;;;;;;;11.69;87.96;99113.06;5033175;28;20670;-71
2023/10/04 00:52:57;;;;;;;3.67;2.45;;;;;;;11.83;86.77;99114.16;5035097;28;20263;-72
2023/10/04 00:55:24;;;;;;;4.07;2.58;;;;;;;11.92;85.51;99105.75;5044782;28;20231;-71
2023/10/04 00:57:52;;;;;;;4.30;2.85;;;;;;;11.99;85.02;99101.28;5041509;28;20208;-72
2023/10/04 01:00:19;;;;;;;3.13;2.63;;;;;;;12.18;83.82;99104.47;5033077;28;20229;-72
2023/10/04 01:02:47;;;;;;;2.88;2.53;;;;;;;12.21;84.22;99109.53;5031728;28;20206;-72
2023/10/04 01:05:15;;;;;;;3.13;2.70;;;;;;;12.17;84.51;99103.63;5031871;28;20253;-72
2023/10/04 01:07:43;;;;;;;3.40;2.30;;;;;;;12.27;84.33;99106.06;5030702;28;20719;-72
2023/10/04 01:10:15;;;;;;;3.28;2.80;;;;;;;12.23;83.74;99104.75;5031494;28;20206;-72
2023/10/04 01:12:44;;;;;;;3.28;2.58;;;;;;;12.11;84.31;99113.34;5033606;28;20802;-71
2023/10/04 01:17:56;;;;;;;3.60;2.75;;;;;;;11.88;85.17;99090.88;5033521;28;20289;-72
2023/10/04 01:20:27;;;;;;;2.55;2.28;;;;;;;11.83;86.13;99095.16;5042839;28;20213;-72
2023/10/04 01:23:00;;;;;;;4.85;2.70;;;;;;;11.71;86.16;99111.81;5031321;28;20221;-71
2023/10/04 01:25:29;;;;;;;5.05;3.03;;;;;;;11.72;86.67;99104.53;5041181;28;20276;-71
2023/10/04 01:27:56;;;;;;;3.05;2.75;;;;;;;11.65;86.73;99107.16;5036221;28;20212;-72
2023/10/04 01:30:23;;;;;;;4.20;3.05;;;;;;;11.49;87.80;99112.72;5037761;28;20256;-72
2023/10/04 01:32:51;;;;;;;5.63;3.00;;;;;;;11.51;88.37;99116.09;5036210;28;20574;-72
2023/10/04 01:35:19;;;;;;;4.63;2.60;;;;;;;11.56;87.78;99101.97;5043622;28;20279;-72
2023/10/04 01:37:46;;;;;;;4.05;2.95;;;;;;;11.67;87.58;99110.53;5032519;28;20200;-72
2023/10/04 01:40:15;;;;;;;3.13;2.83;;;;;;;11.54;87.82;99104.03;5031441;28;20268;-72
2023/10/04 01:42:45;;;;;;;5.30;3.30;;;;;;;11.67;86.77;99101.56;5043846;28;20652;-72
2023/10/04 01:45:15;;;;;;;3.40;2.45;;;;;;;11.68;86.91;99101.38;5040299;28;20218;-72
2023/10/04 01:47:42;;;;;;;2.78;2.45;;;;;;;11.80;85.69;99112.63;5030974;28;20197;-72
2023/10/04 01:50:10;;;;;;;3.85;2.65;;;;;;;11.93;84.74;99110.16;5030540;28;20197;-72
2023/10/04 01:52:38;;;;;;;3.42;2.30;;;;;;;12.02;83.79;99105.50;5030422;28;20196;-73
2023/10/04 01:55:10;;;;;;;4.15;2.60;;;;;;;12.08;83.04;99102.03;5050246;28;20274;-73
2023/10/04 01:57:39;;;;;;;2.58;2.20;;;;;;;12.16;82.84;99109.25;5031708;28;20289;-72
2023/10/04 02:00:09;;;;;;;6.00;2.97;;;;;;;12.17;82.55;99110.94;5029144;28;20194;-72
2023/10/04 02:02:36;;;;;;;3.78;2.58;;;;;;;12.18;82.27;99115.31;5033269;28;20206;-72
2023/10/04 02:05:05;;;;;;;2.63;2.13;;;;;;;12.32;81.85;99126.22;5030728;28;20562;-73
2023/10/04 02:07:32;;;;;;;2.35;2.15;;;;;;;12.37;81.58;99112.88;5030203;28;20208;-72
2023/10/04 02:09:59;;;;;;;5.00;2.50;;;;;;;12.28;82.21;99110.47;5030435;28;20293;-72
2023/10/04 02:12:26;;;;;;;4.00;2.50;;;;;;;12.39;81.44;99110.00;5035522;28;20240;-73
2023/10/04 02:14:54;;;;;;;5.32;2.70;;;;;;;12.36;81.65;99111.19;5043526;28;20305;-73
2023/10/04 02:17:22;;;;;;;3.60;2.40;;;;;;;12.35;81.21;99105.97;5036752;28;20217;-73
2023/10/04 02:19:49;;;;;;;3.20;2.78;;;;;;;12.46;80.52;99110.94;5040801;28;20197;-73
2023/10/04 02:22:18;;;;;;;3.40;2.53;;;;;;;12.35;81.21;99111.38;5043854;28;20224;-72
2023/10/04 02:24:45;;;;;;;2.78;2.40;;;;;;;12.22;81.55;99113.94;5028652;28;20229;-72
2023/10/04 02:27:12;;;;;;;3.42;2.65;;;;;;;12.25;81.31;99108.13;5031634;28;20211;-73
2023/10/04 02:29:39;;;;;;;3.03;2.63;;;;;;;12.10;81.98;99117.09;5030037;28;20292;-72
2023/10/04 02:32:09;;;;;;;2.92;2.65;;;;;;;12.11;82.01;99121.50;5029396;28;20205;-72
2023/10/04 02:34:36;;;;;;;4.57;2.72;;;;;;;12.08;82.27;99116.44;5030993;28;20714;-72
2023/10/04 02:37:06;;;;;;;4.55;2.75;;;;;;;11.80;83.45;99117.22;5029506;28;20205;-73
2023/10/04 02:39:35;;;;;;;3.55;2.90;;;;;;;11.80;83.37;99120.78;5032113;28;20208;-72
2023/10/04 02:42:09;;;;;;;3.45;2.92;;;;;;;11.68;83.79;99144.75;5028614;28;20323;-72
2023/10/04 02:44:37;;;;;;;3.20;2.50;;;;;;;11.74;84.22;99125.03;5032971;28;20265;-72
2023/10/04 02:47:06;;;;;;;2.97;2.67;;;;;;;11.86;82.94;99120.06;5029788;28;20205;-72
2023/10/04 02:49:37;;;;;;;2.78;2.28;;;;;;;11.96;82.77;99125.22;5050484;28;20200;-72
2023/10/04 02:52:06;;;;;;;3.35;2.30;;;;;;;12.01;82.52;99122.81;5034354;28;20226;-71
2023/10/04 02:54:32;;;;;;;2.63;2.20;;;;;;;11.90;82.65;99129.50;5031098;28;20312;-73
2023/10/04 02:57:03;;;;;;;4.25;2.40;;;;;;;12.02;82.07;99128.00;5042379;28;20229;-72
2023/10/04 02:59:32;;;;;;;4.30;2.55;;;;;;;12.09;81.81;99128.97;5041217;28;20292;-72
2023/10/04 03:02:00;;;;;;;3.58;2.60;;;;;;;12.13;81.68;99121.31;5041993;28;20676;-72
2023/10/04 03:04:28;;;;;;;2.90;2.40;;;;;;;12.00;82.17;99135.53;5036017;28;20216;-73
2023/10/04 03:06:56;;;;;;;3.45;2.60;;;;;;;12.01;82.37;99134.50;5039248;28;20283;-72
2023/10/04 03:09:24;;;;;;;3.38;2.50;;;;;;;11.98;81.93;99128.59;5038800;28;20547;-72
2023/10/04 03:11:51;;;;;;;4.80;2.65;;;;;;;11.74;82.46;99126.91;5042685;28;20209;-72
2023/10/04 03:14:18;;;;;;;3.90;2.78;;;;;;;11.62;83.26;99123.78;5036181;28;20225;-72
2023/10/04 03:16:45;;;;;;;4.85;2.80;;;;;;;11.72;82.60;99124.38;5038398;28;20284;-72
2023/10/04 03:19:12;;;;;;;2.90;2.40;;;;;;;11.86;81.93;99125.47;5034905;28;20669;-72
2023/10/04 03:21:44;;;;;;;3.50;2.70;;;;;;;11.68;82.71;99130.38;5026658;28;20363;-72
2023/10/04 03:24:14;;;;;;;4.07;2.40;;;;;;;11.76;82.43;99124.84;5028040;28;20236;-73
2023/10/04 03:26:41;;;;;;;3.00;2.70;;;;;;;11.66;82.60;99124.28;5033664;28;20654;-72
2023/10/04 03:29:08;;;;;;;2.80;2.42;;;;;;;11.49;82.91;99134.41;5031130;28;20201;-72
2023/10/04 03:31:35;;;;;;;4.43;3.25;;;;;;;11.45;83.17;99133.91;5031200;28;20197;-72
2023/10/04 03:34:04;;;;;;;3.80;2.85;;;;;;;11.38;83.70;99132.09;5031044;28;20225;-72
2023/10/04 03:36:34;;;;;;;3.20;2.60;;;;;;;11.34;83.82;99134.34;5028365;28;20297;-72
2023/10/04 03:39:03;;;;;;;4.72;2.97;;;;;;;11.39;84.00;99142.75;5034944;28;20624;-72
2023/10/04 03:41:31;;;;;;;2.90;2.13;;;;;;;11.40;83.77;99139.03;5027587;28;20209;-72
2023/10/04 03:43:58;;;;;;;4.13;2.88;;;;;;;11.59;83.45;99139.59;5035793;28;20225;-72
2023/10/04 03:46:25;;;;;;;5.93;2.95;;;;;;;11.56;83.71;99135.38;5029536;28;20208;-71
2023/10/04 03:48:52;;;;;;;3.45;2.65;;;;;;;11.49;84.26;99138.97;5028656;28;20347;-72
2023/10/04 03:51:23;;;;;;;3.20;2.40;;;;;;;11.50;83.82;99136.09;5035119;28;20260;-72
2023/10/04 03:53:51;;;;;;;4.10;2.63;;;;;;;11.28;84.32;99137.78;5038589;28;20338;-72
2023/10/04 03:56:18;;;;;;;5.03;2.72;;;;;;;11.45;83.99;99139.31;5028344;28;20205;-72
2023/10/04 03:58:48;;;;;;;3.17;2.55;;;;;;;11.57;83.59;99131.63;5034036;28;20811;-72
2023/10/04 04:01:15;;;;;;;2.80;2.30;;;;;;;11.56;83.46;99132.66;5032498;28;20285;-72
2023/10/04 04:03:43;;;;;;;3.28;2.47;;;;;;;11.42;83.45;99131.56;5028673;28;20316;-72
2023/10/04 04:06:11;;;;;;;3.80;2.90;;;;;;;11.31;84.13;99131.16;5036069;28;20806;-71
2023/10/04 04:08:38;;;;;;;3.00;2.45;;;;;;;11.32;84.05;99130.97;5029545;28;20255;-71
2023/10/04 04:11:06;;;;;;;2.95;2.50;;;;;;;11.32;84.41;99132.84;5031984;28;20220;-73
2023/10/04 04:13:36;;;;;;;3.15;2.85;;;;;;;11.33;84.22;99145.38;5028079;28;20566;-72
2023/10/04 04:16:09;;;;;;;3.58;2.40;;;;;;;11.26;84.42;99137.09;5030883;28;20561;-72
2023/10/04 04:18:37;;;;;;;4.47;2.75;;;;;;;11.18;84.65;99136.31;5036623;28;20197;-73
2023/10/04 04:21:05;;;;;;;5.55;3.15;;;;;;;10.77;85.44;99085.91;5028054;28;20194;-72
2023/10/04 04:23:32;;;;;;;5.07;2.60;;;;;;;11.16;84.75;99130.22;5031025;28;20257;-74
2023/10/04 04:26:00;;;;;;;4.75;2.75;;;;;;;11.01;85.70;99138.28;5035172;28;20672;-72
2023/10/04 04:28:29;;;;;;;6.60;3.03;;;;;;;11.05;85.43;99145.00;5032270;28;20204;-71
2023/10/04 04:30:58;;;;;;;4.22;2.90;;;;;;;11.04;85.64;99143.34;5037442;28;20691;-72
2023/10/04 04:33:29;;;;;;;3.25;2.95;;;;;;;11.06;85.60;99154.81;5035119;28;20282;-71
2023/10/04 04:36:01;;;;;;;6.65;2.60;;;;;;;11.11;85.23;99145.13;5035491;28;20201;-71
2023/10/04 04:38:28;;;;;;;3.38;2.60;;;;;;;10.94;85.64;99145.44;5028464;28;20422;-71
2023/10/04 04:40:56;;;;;;;4.00;2.80;;;;;;;10.96;85.58;99143.38;5032755;28;20198;-73
2023/10/04 04:43:35;;;;;;;4.57;2.70;;;;;;;10.92;85.48;99144.75;5031984;28;20276;-73
2023/10/04 04:46:06;;;;;;;3.50;2.90;;;;;;;10.96;85.30;99146.09;5037469;28;20205;-69
2023/10/04 04:48:36;;;;;;;3.55;2.65;;;;;;;10.90;85.61;99141.38;5032186;28;21014;-72
2023/10/04 04:51:10;;;;;;;3.28;2.53;;;;;;;10.89;85.63;99154.06;5023477;28;20205;-71
2023/10/04 04:53:39;;;;;;;3.53;2.78;;;;;;;10.91;85.38;99135.78;5029038;28;20576;-71
2023/10/04 04:56:08;;;;;;;3.00;2.63;;;;;;;10.84;85.45;99150.22;5028431;28;20190;-72
2023/10/04 04:58:35;;;;;;;3.83;2.67;;;;;;;10.95;85.00;99147.13;5026138;28;20211;-72
2023/10/04 05:01:03;;;;;;;4.70;3.13;;;;;;;10.82;85.29;99146.81;5027549;28;20255;-72
2023/10/04 05:03:29;;;;;;;5.03;2.92;;;;;;;10.89;84.71;99147.81;5026790;28;20245;-71
2023/10/04 05:05:58;;;;;;;5.13;2.90;;;;;;;10.89;84.98;99153.22;5029125;28;20285;-72
2023/10/04 05:08:25;;;;;;;4.28;2.58;;;;;;;10.92;84.12;99158.31;5028189;28;20292;-71
2023/10/04 05:10:55;;;;;;;4.10;2.90;;;;;;;10.80;84.73;99151.56;5027514;28;20325;-71
2023/10/04 05:13:22;;;;;;;3.22;2.92;;;;;;;10.83;84.48;99148.50;5032165;28;20232;-72
2023/10/04 05:15:49;;;;;;;6.35;2.80;;;;;;;11.01;84.15;99152.66;5026555;28;20284;-72
2023/10/04 05:18:17;;;;;;;3.28;2.55;;;;;;;10.98;83.79;99163.00;5026577;28;20197;-72
2023/10/04 05:20:45;;;;;;;3.28;2.67;;;;;;;11.03;83.56;99158.75;5028472;28;20208;-72
2023/10/04 05:23:15;;;;;;;3.70;2.80;;;;;;;11.23;83.13;99164.56;5028690;28;20342;-72
2023/10/04 05:25:42;;;;;;;5.30;3.50;;;;;;;11.26;82.86;99153.38;5027410;28;20197;-72
2023/10/04 05:28:11;;;;;;;4.10;3.10;;;;;;;11.30;82.38;99152.00;5042028;28;20255;-72
2023/10/04 05:30:39;;;;;;;3.00;2.65;;;;;;;11.31;82.44;99147.41;5028516;28;20193;-72
2023/10/04 05:33:06;;;;;;;4.35;2.80;;;;;;;11.42;81.73;99145.09;5034502;28;20240;-72
2023/10/04 05:35:33;;;;;;;3.50;2.72;;;;;;;11.33;82.26;99150.78;5037885;28;20738;-72
2023/10/04 05:38:02;;;;;;;3.97;2.85;;;;;;;11.43;81.43;99146.81;5033194;28;20665;-72
2023/10/04 05:40:31;;;;;;;4.43;2.80;;;;;;;11.50;81.55;99148.78;5047141;28;20209;-72
2023/10/04 05:42:59;;;;;;;3.00;2.70;;;;;;;11.44;81.43;99153.06;5039415;28;20235;-72
2023/10/04 05:45:26;;;;;;;3.63;2.70;;;;;;;11.43;81.38;99151.38;5034047;28;20220;-71
2023/10/04 05:47:54;;;;;;;4.40;2.72;;;;;;;11.61;80.81;99159.22;5028677;28;20203;-71
2023/10/04 05:50:21;;;;;;;5.70;2.72;;;;;;;11.69;80.11;99165.44;5035549;28;20289;-71
2023/10/04 05:52:48;;;;;;;5.03;2.80;;;;;;;11.87;78.85;99161.59;5039165;28;20596;-71
2023/10/04 05:55:16;;;;;;;5.70;2.95;;;;;;;12.22;77.56;99171.78;5040957;28;20265;-71
2023/10/04 05:57:45;;;;;;;6.22;2.42;;;;;;;12.61;75.77;99173.41;5033535;28;20284;-71
2023/10/04 06:00:24;;;;;;;4.80;2.53;;;;;;;12.45;75.95;99168.97;5037792;28;20565;-71
2023/10/04 06:02:52;;;;;;;5.55;2.65;;;;;;;12.90;74.31;99169.81;5029935;28;20475;-71
2023/10/04 06:05:22;;;;;;;3.33;2.50;;;;;;;13.16;72.53;99178.34;5035204;28;20666;-72
2023/10/04 06:07:49;;;;;;;3.10;2.77;;;;;;;13.17;72.39;99174.59;5026129;28;24221;-71
2023/10/04 06:10:18;;;;;;;3.73;2.60;;;;;;;13.35;71.53;99164.13;5029269;28;20511;-71
2023/10/04 06:12:47;;;;;;;4.63;3.07;;;;;;;13.26;71.19;99178.88;5041940;28;20997;-71
2023/10/04 06:15:16;;;;;;;3.38;2.70;;;;;;;13.49;70.90;99178.72;5048196;28;20462;-71
2023/10/04 06:17:45;;;;;;;2.40;2.17;;;;;;;14.01;69.31;99183.81;5043253;28;20235;-71
2023/10/04 06:20:25;;;;;;;3.80;2.90;;;;;;;14.52;66.83;99169.19;5049272;28;20459;-71
2023/10/04 06:22:53;;;;;;;6.03;2.90;;;;;;;14.23;67.11;99172.91;5050258;28;20481;-71
2023/10/04 06:25:22;;;;;;;5.07;2.60;;;;;;;14.44;67.24;99178.34;5030741;28;20954;-72
2023/10/04 06:27:51;;;;;;;4.43;2.40;;;;;;;14.89;65.82;99176.94;5028763;28;20470;-72
2023/10/04 06:30:22;;;;;;;3.80;2.50;;;;;;;15.28;64.28;99187.16;5047367;28;20451;-72
2023/10/04 06:32:50;;;;;;;4.00;2.90;;;;;;;15.90;62.61;99186.13;5048890;28;20581;-72
2023/10/04 06:35:18;;;;;;;6.10;2.90;;;;;;;16.20;60.83;99191.19;5031020;28;20448;-72
2023/10/04 06:37:45;;;;;;;3.57;2.53;;;;;;;16.58;59.61;99197.66;5030870;28;20505;-71
2023/10/04 06:40:16;;;;;;;4.33;2.87;;;;;;;16.65;59.20;99194.94;5028151;28;20978;-72
2023/10/04 06:42:45;;;;;;;3.43;2.50;;;;;;;16.61;59.18;99193.66;5031306;28;20472;-72
2023/10/04 06:45:14;;;;;;;4.20;3.00;;;;;;;17.11;57.96;99192.09;5048293;28;20497;-72
2023/10/04 06:47:44;;;;;;;4.27;2.80;;;;;;;17.18;56.80;99200.28;5032075;28;20544;-72
2023/10/04 06:50:16;;;;;;;4.50;2.67;;;;;;;16.97;56.98;99201.41;5034513;28;20431;-72
2023/10/04 06:52:43;;;;;;;2.70;2.20;;;;;;;17.51;54.86;99205.63;5029239;28;20552;-71
2023/10/04 06:55:11;;;;;;;4.10;3.07;;;;;;;17.20;55.74;99206.41;5046230;28;20504;-71
2023/10/04 06:57:40;;;;;;;4.37;2.33;;;;;;;17.03;56.47;99208.75;5029835;28;20451;-71
2023/10/04 07:00:14;;;;;;;4.00;2.47;;;;;;;16.53;57.31;99213.88;5030015;28;20479;-72
2023/10/04 07:02:45;;;;;;;5.90;2.80;;;;;;;16.15;58.11;99204.63;5029901;28;20478;-72
2023/10/04 07:05:15;;;;;;;4.60;2.50;;;;;;;16.47;57.76;99214.72;5047890;28;20474;-71
2023/10/04 07:07:42;;;;;;;4.30;2.23;;;;;;;16.10;59.01;99214.28;5039072;28;20459;-71
2023/10/04 07:10:09;;;;;;;5.43;2.13;;;;;;;15.78;59.78;99215.91;5026837;28;20531;-71
2023/10/04 07:12:38;;;;;;;3.37;2.33;;;;;;;15.76;60.50;99218.00;5029880;28;20492;-72
2023/10/04 07:15:06;;;;;;;3.33;2.67;;;;;;;16.48;58.55;99215.56;5029676;28;20440;-71
2023/10/04 07:17:33;;;;;;;3.23;2.43;;;;;;;16.91;57.43;99210.44;5045295;28;20982;-72
2023/10/04 07:20:06;;;;;;;4.00;2.47;;;;;;;17.25;56.60;99218.34;5048146;28;20451;-71
2023/10/04 07:22:33;;;;;;;2.13;1.90;;;;;;;17.71;55.28;99217.34;5048352;28;20553;-71
2023/10/04 07:25:01;;;;;;;3.40;2.30;;;;;;;18.09;53.57;99220.06;5042942;28;20466;-71
2023/10/04 07:27:27;;;;;;;4.43;2.50;;;;;;;18.79;52.38;99220.75;5041300;28;20463;-71
2023/10/04 07:29:54;;;;;;;2.73;2.20;;;;;;;19.36;50.05;99222.22;5041056;28;20522;-72
2023/10/04 07:32:21;;;;;;;3.60;2.30;;;;;;;19.28;49.85;99208.81;5043521;28;21166;-71
2023/10/04 07:34:48;;;;;;;3.00;2.17;;;;;;;19.34;50.33;99209.81;5043106;28;20459;-70
2023/10/04 07:37:16;;;;;;;3.43;2.10;;;;;;;18.64;51.78;99221.09;5040561;28;20455;-72
2023/10/04 07:39:43;;;;;;;4.40;2.70;;;;;;;18.38;53.01;99224.88;5044767;28;20494;-71
2023/10/04 07:42:11;;;;;;;3.30;2.03;;;;;;;19.31;50.74;99229.47;5039267;28;20455;-71
2023/10/04 07:44:38;;;;;;;2.77;2.17;;;;;;;19.86;48.75;99226.66;5046485;28;20444;-71
2023/10/04 07:47:05;;;;;;;3.20;2.10;;;;;;;20.62;46.94;99226.78;5037875;28;20974;-71
2023/10/04 07:49:32;;;;;;;3.33;1.90;;;;;;;21.00;45.46;99219.97;5036124;28;20451;-71
2023/10/04 07:51:59;;;;;;;3.87;2.37;;;;;;;21.21;44.92;99224.03;5043246;28;20541;-72
2023/10/04 07:54:28;;;;;;;3.73;1.90;;;;;;;20.91;45.63;99233.25;5050065;28;20450;-71
2023/10/04 07:56:55;;;;;;;5.10;2.27;;;;;;;21.55;44.51;99231.38;5038615;28;20588;-71
2023/10/04 07:59:21;;;;;;;2.83;1.90;;;;;;;21.86;43.60;99235.59;5032841;28;20448;-72
2023/10/04 08:01:48;;;;;;;3.23;2.00;;;;;;;20.58;45.80;99242.09;5037110;28;20443;-71
2023/10/04 08:04:15;;;;;;;4.57;2.03;;;;;;;21.46;44.86;99233.69;5051825;28;20479;-72
2023/10/04 08:06:44;;;;;;;3.40;2.07;;;;;;;21.81;43.27;99232.72;5046494;28;20452;-72
2023/10/04 08:09:13;;;;;;;2.57;2.00;;;;;;;22.33;41.99;99224.38;5032782;28;20827;-72
2023/10/04 08:11:42;;;;;;;3.03;1.80;;;;;;;22.38;41.49;99224.47;5032898;28;20542;-72
2023/10/04 08:14:10;;;;;;;3.20;1.60;;;;;;;21.95;42.38;99236.03;5030563;28;20530;-71
2023/10/04 08:16:37;;;;;;;5.10;2.40;;;;;;;22.47;41.57;99239.50;5046511;28;20558;-72
2023/10/04 08:19:05;;;;;;;3.70;1.97;;;;;;;21.41;43.50;99239.09;5049430;28;20490;-71
2023/10/04 08:21:31;;;;;;;4.83;2.07;;;;;;;22.03;42.70;99238.44;5045310;28;20455;-72
2023/10/04 08:23:59;;;;;;;3.23;1.93;;;;;;;22.53;41.20;99232.16;5040537;28;20522;-71
2023/10/04 08:26:26;;;;;;;4.27;1.87;;;;;;;23.05;39.59;99225.28;5039264;28;20459;-72
2023/10/04 08:28:54;;;;;;;3.10;1.70;;;;;;;22.67;40.84;99228.81;5033463;28;20534;-72
2023/10/04 08:31:22;;;;;;;3.77;2.00;;;;;;;22.97;39.32;99227.66;5031922;28;20440;-71
2023/10/04 08:33:49;;;;;;;2.07;1.30;;;;;;;22.77;39.57;99223.44;5036935;28;20491;-72
2023/10/04 08:36:16;;;;;;;3.50;1.30;;;;;;;23.10;38.23;99221.75;5032570;28;20448;-71
2023/10/04 08:38:44;;;;;;;2.70;1.77;;;;;;;23.42;37.59;99219.13;5044304;28;20485;-71
2023/10/04 08:41:11;;;;;;;5.03;1.90;;;;;;;22.20;39.63;99221.91;5048567;28;20478;-71
2023/10/04 08:43:38;;;;;;;2.37;1.50;;;;;;;22.71;39.53;99215.34;5049628;28;20496;-72
2023/10/04 08:46:08;;;;;;;3.00;1.70;;;;;;;22.80;39.12;99219.38;5051138;28;20442;-71
2023/10/04 08:48:35;;;;;;;4.63;2.00;;;;;;;22.93;39.30;99209.91;5031429;28;20558;-71
2023/10/04 08:51:13;;;;;;;2.57;1.87;;;;;;;23.00;39.15;99213.34;5047828;28;20512;-71
2023/10/04 08:53:48;;;;;;;1.87;1.43;;;;;;;23.26;38.56;99215.34;5046389;28;20578;-72
2023/10/04 08:56:16;;;;;;;4.20;1.83;;;;;;;22.66;39.20;99216.09;5046178;28;20552;-71
2023/10/04 08:58:44;;;;;;;2.57;1.50;;;;;;;22.79;39.24;99213.00;5044593;28;20967;-71
2023/10/04 09:01:15;;;;;;;2.77;1.50;;;;;;;23.23;38.55;99203.97;5042180;28;20505;-71
2023/10/04 09:03:43;;;;;;;3.97;1.60;;;;;;;23.37;36.81;99208.88;5032346;28;20999;-71
2023/10/04 09:06:11;;;;;;;2.77;1.50;;;;;;;23.08;37.93;99201.81;5050037;28;20531;-71
2023/10/04 09:08:40;;;;;;;2.83;1.80;;;;;;;22.21;40.34;99209.78;5032410;28;20456;-71
2023/10/04 09:11:10;;;;;;;3.27;1.70;;;;;;;21.99;40.67;99204.13;5042468;28;20533;-71
2023/10/04 09:13:45;;;;;;;3.40;1.97;;;;;;;22.56;39.24;99199.38;5030928;28;20506;-71
2023/10/04 09:16:23;;;;;;;3.30;1.53;;;;;;;22.75;39.36;99202.69;5048404;28;20449;-70
2023/10/04 09:19:06;;;;;;;3.37;2.00;;;;;;;22.94;38.37;99197.78;5034533;28;20494;-71
2023/10/04 09:21:33;;;;;;;4.07;2.20;;;;;;;22.94;39.72;99198.59;5049046;28;20554;-71
2023/10/04 09:24:06;;;;;;;3.53;1.73;;;;;;;22.94;39.03;99189.47;5032067;28;20491;-71
2023/10/04 09:26:33;;;;;;;2.83;1.80;;;;;;;23.50;38.34;99187.47;5038805;28;20464;-71
2023/10/04 09:29:00;;;;;;;3.53;1.80;;;;;;;24.05;37.07;99182.56;5035423;28;20460;-71
2023/10/04 09:31:29;;;;;;;3.77;1.60;;;;;;;24.10;36.16;99188.16;5030583;28;20522;-71
2023/10/04 09:33:57;;;;;;;2.93;1.70;;;;;;;24.69;35.92;99193.66;5031291;28;20487;-71
2023/10/04 09:36:33;;;;;;;3.20;2.00;;;;;;;24.49;35.41;99185.22;5040817;28;20837;-71
2023/10/04 09:39:07;;;;;;;3.53;1.90;;;;;;;24.28;36.80;99183.38;5033327;28;20454;-71
2023/10/04 09:41:39;;;;;;;3.87;1.83;;;;;;;24.60;36.36;99181.44;5038030;28;20443;-72
2023/10/04 09:44:18;;;;;;;2.17;1.60;;;;;;;24.39;35.49;99174.03;5048291;28;20457;-71
2023/10/04 09:46:54;;;;;;;4.23;2.10;;;;;;;25.04;34.30;99178.41;5035658;28;20455;-71
2023/10/04 09:49:25;;;;;;;5.03;2.27;;;;;;;23.99;35.64;99174.50;5044706;28;20975;-71
2023/10/04 09:51:56;;;;;;;3.43;1.90;;;;;;;23.93;36.82;99181.06;5034570;28;20471;-71
2023/10/04 09:54:23;;;;;;;3.23;1.90;;;;;;;24.33;35.48;99180.66;5050750;28;20524;-71
2023/10/04 09:56:53;;;;;;;2.67;1.50;;;;;;;23.64;36.07;99177.72;5050536;28;20958;-71
2023/10/04 09:59:22;;;;;;;4.20;1.90;;;;;;;23.72;36.07;99174.47;5039097;28;21090;-71
2023/10/04 10:01:56;;;;;;;3.30;1.97;;;;;;;24.19;35.52;99162.78;5032231;28;20514;-71
2023/10/04 10:04:28;;;;;;;3.27;1.63;;;;;;;23.45;35.82;99177.16;5034167;28;20466;-71
2023/10/04 10:07:06;;;;;;;3.73;1.67;;;;;;;22.66;37.56;99177.47;5031952;28;20447;-71
2023/10/04 10:09:35;;;;;;;3.73;2.07;;;;;;;23.70;37.01;99171.16;5037550;28;20474;-71
2023/10/04 10:12:03;;;;;;;3.77;1.90;;;;;;;24.08;35.97;99167.38;5032060;28;20603;-71
2023/10/04 10:14:31;;;;;;;3.80;2.07;;;;;;;23.90;35.52;99174.13;5032855;28;21024;-72
2023/10/04 10:17:00;;;;;;;2.57;1.87;;;;;;;24.39;35.04;99185.13;5049288;28;20435;-72
2023/10/04 10:19:28;;;;;;;4.03;1.77;;;;;;;25.26;33.52;99179.09;5049492;28;20504;-71
2023/10/04 10:22:08;;;;;;;3.80;2.33;;;;;;;24.94;33.41;99175.56;5049527;28;20471;-71
2023/10/04 10:24:44;;;;;;;3.37;2.23;;;;;;;24.59;33.70;99179.75;5041177;28;20554;-71
2023/10/04 10:27:13;;;;;;;2.37;1.87;;;;;;;24.10;34.58;99185.38;5037107;28;20569;-71
2023/10/04 10:29:41;;;;;;;2.80;1.80;;;;;;;23.46;35.69;99185.22;5034217;28;20455;-72
2023/10/04 10:32:20;;;;;;;2.23;1.87;;;;;;;24.20;34.50;99181.06;5045460;28;20475;-71
2023/10/04 10:34:49;;;;;;;2.67;2.07;;;;;;;24.26;35.09;99180.88;5029767;28;20483;-71
2023/10/04 10:37:22;;;;;;;2.67;1.93;;;;;;;24.32;33.97;99187.28;5048542;28;20538;-71
2023/10/04 10:39:50;;;;;;;4.70;1.83;;;;;;;23.84;35.02;99188.16;5049591;28;20565;-71
2023/10/04 10:42:18;;;;;;;2.63;1.53;;;;;;;23.22;35.59;99185.72;5030551;28;20575;-70
2023/10/04 10:44:45;;;;;;;3.60;1.80;;;;;;;22.91;35.93;99188.06;5027833;28;20483;-71
2023/10/04 10:47:16;;;;;;;4.70;1.83;;;;;;;23.37;35.88;99189.53;5031037;28;20667;-71
2023/10/04 10:49:52;;;;;;;5.70;2.03;;;;;;;24.33;35.68;99175.97;5042499;28;20530;-71
2023/10/04 10:52:33;;;;;;;2.67;1.70;;;;;;;24.63;33.26;99171.75;5047826;28;21135;-71
2023/10/04 10:55:03;;;;;;;3.07;1.87;;;;;;;25.48;33.05;99169.75;5029781;28;20487;-71
2023/10/04 10:57:31;;;;;;;2.83;1.93;;;;;;;25.29;31.97;99167.47;5042195;28;20468;-71
2023/10/04 11:00:02;;;;;;;3.60;2.10;;;;;;;25.22;32.39;99169.66;5030660;28;20483;-70
2023/10/04 11:02:30;;;;;;;2.10;1.50;;;;;;;25.79;32.16;99166.00;5048570;28;21002;-71
2023/10/04 11:04:57;;;;;;;2.30;1.67;;;;;;;25.55;32.52;99167.56;5048685;28;20514;-71
2023/10/04 11:07:26;;;;;;;4.00;2.10;;;;;;;25.32;32.16;99166.94;5043378;28;20757;-71
2023/10/04 11:09:53;;;;;;;2.30;1.53;;;;;;;25.04;31.95;99161.78;5043356;28;20459;-71
2023/10/04 11:12:22;;;;;;;2.47;1.73;;;;;;;24.71;32.87;99166.53;5030208;28;20523;-71
2023/10/04 11:14:49;;;;;;;3.10;1.60;;;;;;;24.52;33.85;99170.00;5032605;28;20546;-71
2023/10/04 11:17:16;;;;;;;2.80;1.67;;;;;;;25.15;32.38;99155.22;5029043;28;20561;-71
2023/10/04 11:19:45;;;;;;;2.60;1.50;;;;;;;25.63;31.30;99167.06;5040145;28;20526;-71
2023/10/04 11:22:13;;;;;;;3.40;2.03;;;;;;;25.24;31.99;99148.06;5029894;28;20559;-71
2023/10/04 11:24:41;;;;;;;2.20;1.80;;;;;;;25.59;31.47;99155.66;5032407;28;20464;-71
2023/10/04 11:27:08;;;;;;;2.73;1.50;;;;;;;25.76;30.44;99147.13;5029090;28;21042;-71
2023/10/04 11:29:36;;;;;;;3.73;1.70;;;;;;;26.05;30.05;99148.28;5029704;28;20456;-72
2023/10/04 11:32:04;;;;;;;1.93;1.60;;;;;;;25.74;30.78;99141.03;5028777;28;20553;-71
2023/10/04 11:34:36;;;;;;;2.43;1.40;;;;;;;25.38;31.01;99142.81;5028005;28;20491;-72
2023/10/04 11:37:05;;;;;;;2.17;1.50;;;;;;;24.70;31.35;99128.88;5038091;28;20471;-72
2023/10/04 11:39:34;;;;;;;3.07;1.73;;;;;;;24.77;31.10;99135.00;5030514;28;20463;-72
2023/10/04 11:42:02;;;;;;;2.93;1.53;;;;;;;24.88;30.45;99132.31;5048200;28;20470;-72
2023/10/04 11:44:33;;;;;;;2.30;1.50;;;;;;;24.47;31.02;99132.03;5036324;28;20739;-72